createdAt,value
2022-08-20T00:02:56.015Z,18.26
2022-08-20T00:06:02.087Z,18.25
2022-08-20T00:09:04.036Z,18.25
2022-08-20T00:12:06.745Z,18.27
2022-08-20T00:15:08.788Z,18.29
2022-08-20T00:18:12.686Z,18.29
2022-08-20T00:21:19.197Z,18.29
2022-08-20T00:24:21.072Z,18.30
2022-08-20T00:27:22.619Z,18.30
2022-08-20T00:30:26.518Z,18.29
2022-08-20T00:33:28.287Z,18.27
2022-08-20T00:36:32.164Z,18.28
2022-08-20T00:39:34.807Z,18.28
2022-08-20T00:42:53.188Z,18.28
2022-08-20T00:45:57.261Z,18.28
2022-08-20T00:48:59.973Z,18.28
2022-08-20T00:52:17.361Z,18.28
2022-08-20T00:55:22.853Z,18.28
2022-08-20T00:58:24.872Z,18.28
2022-08-20T01:01:26.767Z,18.25
2022-08-20T01:04:33.769Z,18.24
2022-08-20T01:07:37.459Z,18.23
2022-08-20T01:10:44.660Z,18.21
2022-08-20T01:13:47.004Z,18.19
2022-08-20T01:16:52.745Z,18.18
2022-08-20T01:20:20.525Z,18.18
2022-08-20T01:23:30.274Z,18.17
2022-08-20T01:26:37.830Z,18.16
2022-08-20T01:29:40.744Z,18.14
2022-08-20T01:32:42.440Z,18.13
2022-08-20T01:35:44.556Z,18.14
2022-08-20T01:38:54.188Z,18.14
2022-08-20T01:42:14.297Z,18.13
2022-08-20T01:45:15.954Z,18.10
2022-08-20T01:48:19.582Z,18.09
2022-08-20T01:51:27.072Z,18.10
2022-08-20T01:54:28.792Z,18.08
2022-08-20T01:57:30.609Z,18.07
2022-08-20T02:00:32.630Z,18.06
2022-08-20T02:03:38.768Z,18.06
2022-08-20T02:06:56.339Z,18.05
2022-08-20T02:09:59.887Z,18.03
2022-08-20T02:13:02.257Z,18.00
2022-08-20T02:16:05.979Z,17.96
2022-08-20T02:19:16.645Z,17.94
2022-08-20T02:22:23.533Z,17.95
2022-08-20T02:25:29.472Z,17.93
2022-08-20T02:28:31.142Z,17.93
2022-08-20T02:31:35.004Z,17.93
2022-08-20T02:34:37.150Z,17.93
2022-08-20T02:37:40.416Z,17.92
2022-08-20T02:40:44.227Z,17.92
2022-08-20T02:43:45.829Z,17.89
2022-08-20T02:46:50.450Z,17.90
2022-08-20T02:49:52.020Z,17.87
2022-08-20T02:52:54.162Z,17.86
2022-08-20T02:55:56.769Z,17.84
2022-08-20T02:58:58.385Z,17.81
2022-08-20T03:02:00.702Z,17.79
2022-08-20T03:05:03.710Z,17.80
2022-08-20T03:08:07.305Z,17.80
2022-08-20T03:11:09.098Z,17.79
2022-08-20T03:14:11.757Z,17.79
2022-08-20T03:17:13.601Z,17.79
2022-08-20T03:20:15.335Z,17.77
2022-08-20T03:23:19.306Z,17.78
2022-08-20T03:26:20.927Z,17.78
2022-08-20T03:29:22.580Z,17.76
2022-08-20T03:32:24.197Z,17.77
2022-08-20T03:35:30.132Z,17.76
2022-08-20T03:38:32.367Z,17.76
2022-08-20T03:41:35.000Z,17.75
2022-08-20T03:44:36.638Z,17.75
2022-08-20T03:47:40.009Z,17.75
2022-08-20T03:50:42.484Z,17.74
2022-08-20T03:53:44.146Z,17.72
2022-08-20T03:56:45.701Z,17.72
2022-08-20T03:59:47.360Z,17.70
2022-08-20T04:02:57.231Z,17.69
2022-08-20T04:05:58.932Z,17.69
2022-08-20T04:09:01.085Z,17.69
2022-08-20T04:12:02.870Z,17.67
2022-08-20T04:15:04.892Z,17.67
2022-08-20T04:18:09.985Z,17.67
2022-08-20T04:21:11.785Z,17.68
2022-08-20T04:24:31.108Z,17.69
2022-08-20T04:27:33.804Z,17.70
2022-08-20T04:30:35.612Z,17.70
2022-08-20T04:33:37.624Z,17.70
2022-08-20T04:36:40.572Z,17.69
2022-08-20T04:39:42.174Z,17.69
2022-08-20T04:42:43.789Z,17.69
2022-08-20T04:45:47.185Z,17.68
2022-08-20T04:48:50.502Z,17.70
2022-08-20T04:51:53.387Z,17.69
2022-08-20T04:54:56.550Z,17.69
2022-08-20T04:58:06.237Z,17.70
2022-08-20T05:01:11.928Z,17.70
2022-08-20T05:04:13.595Z,17.71
2022-08-20T05:07:18.696Z,17.74
2022-08-20T05:10:20.662Z,17.79
2022-08-20T05:13:27.109Z,17.85
2022-08-20T05:16:29.129Z,17.91
2022-08-20T05:19:35.805Z,17.99
2022-08-20T05:22:40.144Z,18.05
2022-08-20T05:25:43.833Z,18.11
2022-08-20T05:28:58.797Z,18.18
2022-08-20T05:32:01.797Z,18.26
2022-08-20T05:35:09.724Z,18.41
2022-08-20T05:38:13.794Z,18.47
2022-08-20T05:41:28.848Z,18.49
2022-08-20T05:44:31.549Z,18.49
2022-08-20T05:47:37.207Z,18.49
2022-08-20T05:50:46.404Z,18.47
2022-08-20T05:53:48.480Z,18.48
2022-08-20T05:56:51.042Z,18.48
2022-08-20T05:59:53.662Z,18.49
2022-08-20T06:03:15.063Z,18.56
2022-08-20T06:06:20.723Z,18.71
2022-08-20T06:09:38.420Z,18.89
2022-08-20T06:12:40.070Z,18.98
2022-08-20T06:15:42.101Z,19.02
2022-08-20T06:18:43.694Z,19.03
2022-08-20T06:21:45.351Z,19.05
2022-08-20T06:24:47.063Z,19.06
2022-08-20T06:27:48.765Z,19.07
2022-08-20T06:30:50.513Z,19.08
2022-08-20T06:33:52.184Z,19.11
2022-08-20T06:36:57.868Z,19.11
2022-08-20T06:40:07.137Z,19.14
2022-08-20T06:43:09.768Z,19.12
2022-08-20T06:46:11.417Z,19.09
2022-08-20T06:49:13.458Z,19.10
2022-08-20T06:52:18.278Z,19.12
2022-08-20T06:55:20.808Z,19.14
2022-08-20T06:58:37.582Z,19.13
2022-08-20T07:01:40.440Z,19.09
2022-08-20T07:04:42.108Z,19.06
2022-08-20T07:07:49.560Z,19.03
2022-08-20T07:10:51.336Z,19.01
2022-08-20T07:13:53.333Z,19.01
2022-08-20T07:16:55.177Z,18.99
2022-08-20T07:19:56.923Z,18.99
2022-08-20T07:22:59.178Z,18.97
2022-08-20T07:26:00.884Z,18.97
2022-08-20T07:29:02.725Z,18.96
2022-08-20T07:32:23.634Z,18.97
2022-08-20T07:35:30.852Z,18.95
2022-08-20T07:38:33.563Z,18.94
2022-08-20T07:41:35.209Z,18.92
2022-08-20T07:44:39.363Z,18.93
2022-08-20T07:47:42.912Z,18.94
2022-08-20T07:50:45.133Z,18.94
2022-08-20T07:53:48.553Z,18.97
2022-08-20T07:56:50.178Z,18.98
2022-08-20T07:59:52.028Z,19.06
2022-08-20T08:02:53.700Z,19.12
2022-08-20T08:05:56.134Z,19.15
2022-08-20T08:09:09.868Z,19.18
2022-08-20T08:12:13.961Z,19.21
2022-08-20T08:15:19.181Z,19.25
2022-08-20T08:18:30.029Z,19.26
2022-08-20T08:21:33.555Z,19.26
2022-08-20T08:24:35.256Z,19.29
2022-08-20T08:27:36.978Z,19.29
2022-08-20T08:30:40.410Z,19.28
2022-08-20T08:33:42.335Z,19.27
2022-08-20T08:36:44.362Z,19.24
2022-08-20T08:39:45.959Z,19.22
2022-08-20T08:42:58.236Z,19.19
2022-08-20T08:46:06.369Z,19.18
2022-08-20T08:49:12.319Z,19.17
2022-08-20T08:52:27.509Z,19.17
2022-08-20T08:55:31.088Z,19.19
2022-08-20T08:58:35.499Z,19.21
2022-08-20T09:01:53.729Z,19.24
2022-08-20T09:05:01.998Z,19.24
2022-08-20T09:08:07.465Z,19.24
2022-08-20T09:11:10.524Z,19.26
2022-08-20T09:14:12.902Z,19.29
2022-08-20T09:17:19.691Z,19.34
2022-08-20T09:20:23.028Z,19.36
2022-08-20T09:23:28.788Z,19.42
2022-08-20T09:26:30.910Z,19.45
2022-08-20T09:29:33.329Z,19.49
2022-08-20T09:32:35.409Z,19.58
2022-08-20T09:35:38.092Z,19.66
2022-08-20T09:38:39.749Z,19.77
2022-08-20T09:41:41.444Z,19.91
2022-08-20T09:44:43.614Z,20.08
2022-08-20T09:47:54.754Z,20.19
2022-08-20T09:50:57.658Z,20.31
2022-08-20T09:54:00.012Z,20.46
2022-08-20T09:57:05.245Z,20.63
2022-08-20T10:00:09.392Z,20.75
2022-08-20T10:03:11.098Z,20.88
2022-08-20T10:06:14.805Z,21.02
2022-08-20T10:09:16.567Z,21.14
2022-08-20T10:12:18.192Z,21.28
2022-08-20T10:15:20.064Z,21.43
2022-08-20T10:18:21.617Z,21.59
2022-08-20T10:21:23.370Z,21.76
2022-08-20T10:24:25.304Z,21.92
2022-08-20T10:27:27.053Z,22.09
2022-08-20T10:30:28.780Z,22.25
2022-08-20T10:33:30.420Z,22.40
2022-08-20T10:36:32.458Z,22.49
2022-08-20T10:39:34.507Z,22.55
2022-08-20T10:42:39.217Z,22.63
2022-08-20T10:45:43.956Z,22.69
2022-08-20T10:48:45.708Z,22.75
2022-08-20T10:51:47.245Z,22.80
2022-08-20T10:54:50.049Z,22.85
2022-08-20T10:57:51.719Z,22.95
2022-08-20T11:00:53.528Z,23.03
2022-08-20T11:03:55.141Z,23.12
2022-08-20T11:06:56.765Z,23.21
2022-08-20T11:09:58.634Z,23.34
2022-08-20T11:13:01.585Z,23.42
2022-08-20T11:16:04.188Z,23.51
2022-08-20T11:19:05.748Z,23.61
2022-08-20T11:22:07.865Z,23.68
2022-08-20T11:25:10.413Z,23.74
2022-08-20T11:28:13.131Z,23.85
2022-08-20T11:31:14.708Z,23.98
2022-08-20T11:34:16.489Z,24.07
2022-08-20T11:37:20.474Z,24.13
2022-08-20T11:40:23.298Z,24.22
2022-08-20T11:43:24.894Z,24.31
2022-08-20T11:46:28.592Z,24.32
2022-08-20T11:49:31.816Z,24.38
2022-08-20T11:52:33.943Z,24.44
2022-08-20T11:55:36.641Z,24.49
2022-08-20T11:58:38.590Z,24.55
2022-08-20T12:01:40.252Z,24.60
2022-08-20T12:04:41.902Z,24.64
2022-08-20T12:07:43.486Z,24.70
2022-08-20T12:10:45.150Z,24.76
2022-08-20T12:13:48.136Z,24.71
2022-08-20T12:16:50.766Z,24.70
2022-08-20T12:19:54.768Z,24.74
2022-08-20T12:22:56.634Z,24.82
2022-08-20T12:26:02.734Z,24.93
2022-08-20T12:29:04.356Z,25.02
2022-08-20T12:32:07.332Z,24.95
2022-08-20T12:35:10.564Z,24.85
2022-08-20T12:38:12.304Z,24.82
2022-08-20T12:41:13.847Z,24.79
2022-08-20T12:44:15.402Z,24.75
2022-08-20T12:47:21.534Z,24.63
2022-08-20T12:50:29.685Z,24.52
2022-08-20T12:53:32.938Z,24.41
2022-08-20T12:56:36.229Z,24.31
2022-08-20T12:59:37.768Z,24.16
2022-08-20T13:02:41.193Z,24.00
2022-08-20T13:05:42.852Z,23.94
2022-08-20T13:08:44.526Z,23.96
2022-08-20T13:11:46.209Z,24.02
2022-08-20T13:14:47.885Z,24.11
2022-08-20T13:17:57.737Z,24.17
2022-08-20T13:20:59.425Z,24.19
2022-08-20T13:24:01.080Z,24.15
2022-08-20T13:27:11.656Z,24.09
2022-08-20T13:30:17.402Z,24.02
2022-08-20T13:33:19.040Z,24.04
2022-08-20T13:36:20.745Z,23.97
2022-08-20T13:39:24.145Z,23.93
2022-08-20T13:42:27.472Z,23.91
2022-08-20T13:45:29.093Z,23.93
2022-08-20T13:48:30.691Z,23.97
2022-08-20T13:51:32.281Z,23.98
2022-08-20T13:54:34.612Z,24.00
2022-08-20T13:57:37.074Z,24.02
2022-08-20T14:00:38.833Z,23.96
2022-08-20T14:03:40.777Z,23.86
2022-08-20T14:06:44.413Z,23.74
2022-08-20T14:09:52.292Z,23.68
2022-08-20T14:12:53.979Z,23.69
2022-08-20T14:15:56.537Z,23.78
2022-08-20T14:18:58.107Z,23.91
2022-08-20T14:21:59.701Z,23.98
2022-08-20T14:25:03.678Z,23.93
2022-08-20T14:28:20.658Z,23.88
2022-08-20T14:31:22.297Z,23.86
2022-08-20T14:34:23.949Z,23.92
2022-08-20T14:37:31.089Z,23.96
2022-08-20T14:40:33.332Z,23.96
2022-08-20T14:43:34.982Z,23.98
2022-08-20T14:46:36.603Z,24.01
2022-08-20T14:49:38.693Z,23.92
2022-08-20T14:52:41.256Z,23.85
2022-08-20T14:55:42.981Z,23.74
2022-08-20T14:58:44.718Z,23.67
2022-08-20T15:01:46.384Z,23.64
2022-08-20T15:04:51.641Z,23.59
2022-08-20T15:07:56.512Z,23.41
2022-08-20T15:10:58.524Z,23.41
2022-08-20T15:14:00.289Z,23.42
2022-08-20T15:17:02.039Z,23.40
2022-08-20T15:20:20.321Z,23.43
2022-08-20T15:23:23.064Z,23.46
2022-08-20T15:26:24.677Z,23.48
2022-08-20T15:29:26.448Z,23.49
2022-08-20T15:32:28.049Z,23.46
2022-08-20T15:35:29.870Z,23.42
2022-08-20T15:38:33.052Z,23.41
2022-08-20T15:41:34.846Z,23.39
2022-08-20T15:44:37.364Z,23.31
2022-08-20T15:47:49.561Z,23.29
2022-08-20T15:51:03.402Z,23.24
2022-08-20T15:54:17.433Z,23.19
2022-08-20T15:57:59.291Z,23.16
2022-08-20T16:01:24.501Z,23.08
2022-08-20T16:04:33.118Z,22.98
2022-08-20T16:08:00.937Z,22.92
2022-08-20T16:11:20.516Z,22.80
2022-08-20T16:14:26.529Z,22.70
2022-08-20T16:17:37.763Z,22.60
2022-08-20T16:20:43.732Z,22.53
2022-08-20T16:23:49.614Z,22.51
2022-08-20T16:27:26.040Z,22.52
2022-08-20T16:30:34.113Z,22.49
2022-08-20T16:34:28.170Z,22.48
2022-08-20T16:37:51.764Z,22.41
2022-08-20T16:41:02.210Z,22.36
2022-08-20T16:44:17.408Z,22.25
2022-08-20T16:47:38.386Z,22.20
2022-08-20T16:50:56.113Z,22.17
2022-08-20T16:53:58.600Z,22.15
2022-08-20T16:57:06.100Z,22.12
2022-08-20T17:00:19.637Z,22.09
2022-08-20T17:03:21.198Z,21.99
2022-08-20T17:06:47.216Z,21.89
2022-08-20T17:09:48.884Z,21.85
2022-08-20T17:13:00.015Z,21.85
2022-08-20T17:16:21.006Z,21.84
2022-08-20T17:19:30.488Z,21.83
2022-08-20T17:22:41.415Z,21.78
2022-08-20T17:25:43.109Z,21.72
2022-08-20T17:28:53.850Z,21.64
2022-08-20T17:31:58.195Z,21.55
2022-08-20T17:35:01.963Z,21.47
2022-08-20T17:38:04.696Z,21.41
2022-08-20T17:41:17.252Z,21.36
2022-08-20T17:44:25.808Z,21.29
2022-08-20T17:47:36.143Z,21.20
2022-08-20T17:50:40.191Z,21.15
2022-08-20T17:53:43.375Z,21.11
2022-08-20T17:56:45.071Z,21.07
2022-08-20T18:00:01.955Z,20.98
2022-08-20T18:03:16.332Z,20.89
2022-08-20T18:06:37.627Z,20.81
2022-08-20T18:10:02.083Z,20.73
2022-08-20T18:13:19.898Z,20.60
2022-08-20T18:16:34.040Z,20.52
2022-08-20T18:20:13.717Z,20.43
2022-08-20T18:23:28.773Z,20.35
2022-08-20T18:26:39.950Z,20.23
2022-08-20T18:29:44.560Z,20.15
2022-08-20T18:32:51.133Z,20.08
2022-08-20T18:36:14.621Z,19.97
2022-08-20T18:39:47.041Z,19.85
2022-08-20T18:42:48.708Z,19.76
2022-08-20T18:45:50.293Z,19.96
2022-08-20T18:49:01.640Z,19.82
2022-08-20T18:52:31.701Z,19.66
2022-08-20T18:55:41.985Z,19.48
2022-08-20T18:59:04.486Z,19.32
2022-08-20T19:02:19.933Z,19.18
2022-08-20T19:05:42.895Z,19.05
2022-08-20T19:08:59.920Z,18.93
2022-08-20T19:12:22.827Z,18.84
2022-08-20T19:15:25.379Z,18.74
2022-08-20T19:18:32.024Z,18.64
2022-08-20T19:21:35.773Z,18.55
2022-08-20T19:24:43.552Z,18.49
2022-08-20T19:27:45.603Z,18.43
2022-08-20T19:30:47.504Z,18.35
2022-08-20T19:33:51.740Z,18.26
2022-08-20T19:37:08.913Z,18.15
2022-08-20T19:40:24.490Z,18.01
2022-08-20T19:43:30.081Z,17.93
2022-08-20T19:46:40.233Z,17.85
2022-08-20T19:50:03.866Z,17.76
2022-08-20T19:53:30.050Z,17.64
2022-08-20T19:56:40.975Z,17.56
2022-08-20T19:59:55.096Z,17.48
2022-08-20T20:02:56.865Z,17.37
2022-08-20T20:06:17.495Z,17.27
2022-08-20T20:09:26.195Z,17.20
2022-08-20T20:12:27.798Z,17.11
2022-08-20T20:15:29.477Z,17.08
2022-08-20T20:18:36.978Z,17.04
2022-08-20T20:21:47.658Z,16.99
2022-08-20T20:25:03.059Z,16.90
2022-08-20T20:28:27.433Z,16.82
2022-08-20T20:31:31.913Z,16.69
2022-08-20T20:34:39.932Z,16.56
2022-08-20T20:38:04.212Z,16.44
2022-08-20T20:41:20.356Z,16.36
2022-08-20T20:44:24.925Z,16.30
2022-08-20T20:47:33.417Z,16.24
2022-08-20T20:50:38.422Z,16.17
2022-08-20T20:53:53.335Z,16.11
2022-08-20T20:57:00.442Z,16.05
2022-08-20T21:00:02.092Z,16.00
2022-08-20T21:03:04.290Z,15.95
2022-08-20T21:06:07.117Z,15.89
2022-08-20T21:09:08.777Z,15.82
2022-08-20T21:12:11.483Z,15.74
2022-08-20T21:15:13.210Z,15.68
2022-08-20T21:18:14.822Z,15.63
2022-08-20T21:21:16.480Z,15.66
2022-08-20T21:24:18.161Z,15.88
2022-08-20T21:27:23.687Z,15.97
2022-08-20T21:30:26.212Z,15.99
2022-08-20T21:33:27.954Z,15.99
2022-08-20T21:36:29.620Z,15.98
2022-08-20T21:39:31.437Z,15.95
2022-08-20T21:42:33.221Z,15.90
2022-08-20T21:45:38.828Z,15.89
2022-08-20T21:48:43.199Z,15.91
2022-08-20T21:51:47.991Z,15.99
2022-08-20T21:54:49.663Z,15.99
2022-08-20T21:57:51.410Z,15.95
2022-08-20T22:00:55.746Z,15.92
2022-08-20T22:03:57.377Z,15.87
2022-08-20T22:06:59.093Z,15.82
2022-08-20T22:10:00.768Z,15.73
2022-08-20T22:13:02.975Z,15.64
2022-08-20T22:16:08.450Z,15.69
2022-08-20T22:19:15.349Z,15.60
2022-08-20T22:22:20.113Z,15.56
2022-08-20T22:25:21.777Z,15.51
2022-08-20T22:28:23.749Z,15.45
2022-08-20T22:31:31.785Z,15.37
2022-08-20T22:34:35.775Z,15.31
2022-08-20T22:37:37.420Z,15.26
2022-08-20T22:40:39.113Z,15.20
2022-08-20T22:43:46.205Z,15.14
2022-08-20T22:47:01.492Z,15.07
2022-08-20T22:50:05.193Z,15.00
2022-08-20T22:53:08.013Z,14.91
2022-08-20T22:56:19.646Z,14.77
2022-08-20T22:59:24.215Z,14.65
2022-08-20T23:02:25.947Z,14.53
2022-08-20T23:05:30.590Z,14.41
2022-08-20T23:08:32.329Z,14.31
2022-08-20T23:11:34.044Z,14.21
2022-08-20T23:14:35.707Z,14.12
2022-08-20T23:17:38.428Z,14.04
2022-08-20T23:20:42.793Z,13.95
2022-08-20T23:23:44.468Z,13.83
2022-08-20T23:26:52.706Z,13.70
2022-08-20T23:29:55.041Z,13.59
2022-08-20T23:32:56.770Z,13.48
2022-08-20T23:35:59.501Z,13.40
2022-08-20T23:39:01.281Z,13.34
2022-08-20T23:42:11.021Z,13.31
2022-08-20T23:45:13.085Z,13.29
2022-08-20T23:48:14.653Z,13.24
2022-08-20T23:51:16.306Z,13.17
2022-08-20T23:54:18.047Z,13.11
2022-08-20T23:57:21.139Z,13.07
